sensor_id;sensor_type;location;lat;lon;timestamp;pressure;altitude;pressure_sealevel;temperature;humidity
58775;BME280;44545;47.480;19.024;2023-01-24T03:44:56;101596.00;;;5.15;98.37
58775;BME280;44545;47.480;19.024;2023-01-24T03:48:02;101596.00;;;5.15;98.37
58775;BME280;44545;47.480;19.024;2023-01-24T03:51:05;101602.28;;;4.46;100.00
58775;BME280;44545;47.480;19.024;2023-01-24T03:54:26;101596.50;;;4.48;100.00
58775;BME280;44545;47.480;19.024;2023-01-24T03:57:29;101599.09;;;4.48;100.00
58775;BME280;44545;47.480;19.024;2023-01-24T04:00:33;101593.59;;;4.54;99.60
58775;BME280;44545;47.480;19.024;2023-01-24T04:03:36;101597.09;;;4.54;98.88
58775;BME280;44545;47.480;19.024;2023-01-24T04:06:39;101594.81;;;4.57;100.00
58775;BME280;44545;47.480;19.024;2023-01-24T04:09:41;101599.50;;;4.62;100.00
58775;BME280;44545;47.480;19.024;2023-01-24T04:12:43;101599.81;;;4.65;100.00
58775;BME280;44545;47.480;19.024;2023-01-24T04:15:46;101596.16;;;4.71;98.04
58775;BME280;44545;47.480;19.024;2023-01-24T04:18:51;101609.22;;;4.73;100.00
58775;BME280;44545;47.480;19.024;2023-01-24T04:21:55;101601.91;;;4.77;98.70
58775;BME280;44545;47.480;19.024;2023-01-24T04:24:59;101607.09;;;4.69;100.00
58775;BME280;44545;47.480;19.024;2023-01-24T04:28:02;101602.09;;;4.62;98.14
58775;BME280;44545;47.480;19.024;2023-01-24T04:31:05;101601.47;;;4.73;99.37
58775;BME280;44545;47.480;19.024;2023-01-24T04:34:08;101601.75;;;4.76;99.21
58775;BME280;44545;47.480;19.024;2023-01-24T04:37:11;101601.00;;;4.77;99.20
58775;BME280;44545;47.480;19.024;2023-01-24T04:40:14;101605.41;;;4.78;99.48
58775;BME280;44545;47.480;19.024;2023-01-24T04:43:16;101604.03;;;4.82;99.46
58775;BME280;44545;47.480;19.024;2023-01-24T04:46:19;101608.31;;;4.81;99.72
58775;BME280;44545;47.480;19.024;2023-01-24T04:49:22;101605.88;;;4.74;100.00
58775;BME280;44545;47.480;19.024;2023-01-24T04:52:25;101602.69;;;4.68;100.00
58775;BME280;44545;47.480;19.024;2023-01-24T04:55:28;101609.53;;;4.67;100.00
58775;BME280;44545;47.480;19.024;2023-01-24T04:58:32;101617.41;;;4.77;100.00
58775;BME280;44545;47.480;19.024;2023-01-24T05:01:36;101614.13;;;4.61;100.00
58775;BME280;44545;47.480;19.024;2023-01-24T05:04:38;101614.72;;;4.59;100.00
58775;BME280;44545;47.480;19.024;2023-01-24T05:07:41;101621.69;;;4.60;100.00
58775;BME280;44545;47.480;19.024;2023-01-24T05:10:44;101620.91;;;4.61;100.00
58775;BME280;44545;47.480;19.024;2023-01-24T05:13:47;101625.06;;;4.59;100.00
58775;BME280;44545;47.480;19.024;2023-01-24T05:16:50;101622.75;;;4.62;100.00
58775;BME280;44545;47.480;19.024;2023-01-24T05:19:52;101618.34;;;4.61;100.00
58775;BME280;44545;47.480;19.024;2023-01-24T05:22:57;101622.16;;;4.55;100.00
58775;BME280;44545;47.480;19.024;2023-01-24T05:26:03;101624.16;;;4.49;100.00
58775;BME280;44545;47.480;19.024;2023-01-24T05:29:06;101625.53;;;4.46;100.00
58775;BME280;44545;47.480;19.024;2023-01-24T05:32:08;101624.59;;;4.45;100.00
58775;BME280;44545;47.480;19.024;2023-01-24T05:35:11;101629.59;;;4.52;100.00
58775;BME280;44545;47.480;19.024;2023-01-24T05:38:13;101624.28;;;4.42;100.00
58775;BME280;44545;47.480;19.024;2023-01-24T05:41:18;101631.75;;;4.39;100.00
58775;BME280;44545;47.480;19.024;2023-01-24T05:44:21;101625.22;;;4.51;100.00
58775;BME280;44545;47.480;19.024;2023-01-24T05:47:24;101627.81;;;4.34;100.00
58775;BME280;44545;47.480;19.024;2023-01-24T05:50:27;101627.19;;;4.28;100.00
58775;BME280;44545;47.480;19.024;2023-01-24T05:53:43;101625.06;;;4.24;100.00
58775;BME280;44545;47.480;19.024;2023-01-24T05:56:46;101624.00;;;4.22;100.00
58775;BME280;44545;47.480;19.024;2023-01-24T05:59:48;101625.50;;;4.20;100.00
58775;BME280;44545;47.480;19.024;2023-01-24T06:02:50;101626.28;;;4.19;100.00
58775;BME280;44545;47.480;19.024;2023-01-24T06:05:54;101628.09;;;4.20;100.00
58775;BME280;44545;47.480;19.024;2023-01-24T06:08:57;101632.34;;;4.19;100.00
58775;BME280;44545;47.480;19.024;2023-01-24T06:12:00;101638.91;;;4.16;100.00
58775;BME280;44545;47.480;19.024;2023-01-24T06:15:02;101646.63;;;4.16;100.00
58775;BME280;44545;47.480;19.024;2023-01-24T06:18:06;101645.09;;;4.09;100.00
58775;BME280;44545;47.480;19.024;2023-01-24T06:24:24;101651.47;;;4.04;100.00
58775;BME280;44545;47.480;19.024;2023-01-24T06:27:27;101650.41;;;3.93;100.00
58775;BME280;44545;47.480;19.024;2023-01-24T06:30:30;101659.66;;;3.91;100.00
58775;BME280;44545;47.480;19.024;2023-01-24T06:33:37;101659.81;;;3.93;100.00
58775;BME280;44545;47.480;19.024;2023-01-24T06:37:15;101651.31;;;4.02;100.00
58775;BME280;44545;47.480;19.024;2023-01-24T06:40:22;101663.31;;;4.02;100.00
58775;BME280;44545;47.480;19.024;2023-01-24T06:43:25;101659.03;;;4.02;100.00
58775;BME280;44545;47.480;19.024;2023-01-24T06:46:27;101658.78;;;4.08;100.00
58775;BME280;44545;47.480;19.024;2023-01-24T06:49:30;101664.72;;;4.16;100.00
58775;BME280;44545;47.480;19.024;2023-01-24T06:52:32;101662.44;;;4.19;100.00
58775;BME280;44545;47.480;19.024;2023-01-24T06:55:34;101660.75;;;4.28;100.00
58775;BME280;44545;47.480;19.024;2023-01-24T06:58:37;101661.69;;;4.28;100.00
58775;BME280;44545;47.480;19.024;2023-01-24T07:01:39;101662.09;;;4.68;100.00
58775;BME280;44545;47.480;19.024;2023-01-24T07:04:42;101668.78;;;4.66;100.00
58775;BME280;44545;47.480;19.024;2023-01-24T07:07:44;101667.72;;;4.72;100.00
58775;BME280;44545;47.480;19.024;2023-01-24T07:10:47;101671.84;;;4.79;100.00
58775;BME280;44545;47.480;19.024;2023-01-24T07:13:50;101674.25;;;4.86;100.00
58775;BME280;44545;47.480;19.024;2023-01-24T07:16:52;101676.69;;;4.85;100.00
58775;BME280;44545;47.480;19.024;2023-01-24T07:19:58;101682.16;;;4.96;100.00
58775;BME280;44545;47.480;19.024;2023-01-24T07:23:00;101684.50;;;5.21;99.61
58775;BME280;44545;47.480;19.024;2023-01-24T07:26:03;101680.16;;;5.48;97.57
58775;BME280;44545;47.480;19.024;2023-01-24T07:29:05;101683.44;;;5.64;96.08
58775;BME280;44545;47.480;19.024;2023-01-24T07:32:09;101683.50;;;5.83;94.33
58775;BME280;44545;47.480;19.024;2023-01-24T07:35:11;101676.75;;;5.94;93.94
58775;BME280;44545;47.480;19.024;2023-01-24T07:38:14;101679.59;;;6.24;92.78
58775;BME280;44545;47.480;19.024;2023-01-24T07:41:16;101680.87;;;6.57;91.19
58775;BME280;44545;47.480;19.024;2023-01-24T07:44:19;101684.63;;;6.80;89.07
58775;BME280;44545;47.480;19.024;2023-01-24T07:47:21;101691.50;;;7.08;87.06
58775;BME280;44545;47.480;19.024;2023-01-24T07:50:24;101699.94;;;7.06;87.35
58775;BME280;44545;47.480;19.024;2023-01-24T07:53:27;101694.75;;;7.06;86.35
58775;BME280;44545;47.480;19.024;2023-01-24T07:56:29;101696.81;;;7.00;86.58
58775;BME280;44545;47.480;19.024;2023-01-24T07:59:31;101695.44;;;6.84;87.66
58775;BME280;44545;47.480;19.024;2023-01-24T08:02:41;101694.78;;;6.68;88.65
58775;BME280;44545;47.480;19.024;2023-01-24T08:05:44;101703.16;;;6.74;88.86
58775;BME280;44545;47.480;19.024;2023-01-24T08:08:46;101710.28;;;7.25;89.32
58775;BME280;44545;47.480;19.024;2023-01-24T08:11:49;101712.66;;;8.02;85.07
58775;BME280;44545;47.480;19.024;2023-01-24T08:14:51;101711.69;;;8.94;80.98
58775;BME280;44545;47.480;19.024;2023-01-24T08:17:53;101707.97;;;9.44;74.96
58775;BME280;44545;47.480;19.024;2023-01-24T08:20:56;101708.16;;;10.02;71.96
58775;BME280;44545;47.480;19.024;2023-01-24T08:23:58;101712.50;;;9.57;72.66
58775;BME280;44545;47.480;19.024;2023-01-24T08:27:02;101708.37;;;9.71;72.67
58775;BME280;44545;47.480;19.024;2023-01-24T08:30:05;101718.13;;;9.73;71.44
58775;BME280;44545;47.480;19.024;2023-01-24T08:33:08;101715.53;;;9.19;73.02
58775;BME280;44545;47.480;19.024;2023-01-24T08:36:13;101722.25;;;9.27;72.10
58775;BME280;44545;47.480;19.024;2023-01-24T08:39:15;101720.34;;;9.47;72.72
58775;BME280;44545;47.480;19.024;2023-01-24T08:42:25;101724.34;;;9.53;72.19
58775;BME280;44545;47.480;19.024;2023-01-24T08:45:28;101721.75;;;9.21;72.25
58775;BME280;44545;47.480;19.024;2023-01-24T08:48:31;101722.09;;;8.94;74.17
58775;BME280;44545;47.480;19.024;2023-01-24T08:51:33;101731.44;;;9.12;74.49
58775;BME280;44545;47.480;19.024;2023-01-24T08:54:37;101725.72;;;9.38;74.26
58775;BME280;44545;47.480;19.024;2023-01-24T08:57:39;101719.62;;;9.38;73.43
58775;BME280;44545;47.480;19.024;2023-01-24T09:00:42;101730.09;;;8.75;74.22
58775;BME280;44545;47.480;19.024;2023-01-24T09:03:44;101735.44;;;8.45;76.06
58775;BME280;44545;47.480;19.024;2023-01-24T09:06:47;101733.09;;;8.59;76.11
58775;BME280;44545;47.480;19.024;2023-01-24T09:09:49;101737.75;;;8.63;75.65
58775;BME280;44545;47.480;19.024;2023-01-24T09:12:52;101743.22;;;8.45;76.17
58775;BME280;44545;47.480;19.024;2023-01-24T09:15:54;101738.16;;;8.37;76.57
58775;BME280;44545;47.480;19.024;2023-01-24T09:18:59;101735.16;;;8.22;76.67
58775;BME280;44545;47.480;19.024;2023-01-24T09:22:01;101739.69;;;8.35;76.78
58775;BME280;44545;47.480;19.024;2023-01-24T09:25:04;101745.19;;;8.48;76.54
58775;BME280;44545;47.480;19.024;2023-01-24T09:28:07;101737.50;;;8.60;75.48
58775;BME280;44545;47.480;19.024;2023-01-24T09:31:09;101739.16;;;8.90;74.54
58775;BME280;44545;47.480;19.024;2023-01-24T09:34:13;101731.06;;;9.40;71.71
58775;BME280;44545;47.480;19.024;2023-01-24T09:37:19;101730.78;;;9.69;70.51
58775;BME280;44545;47.480;19.024;2023-01-24T09:40:26;101724.56;;;10.56;67.21
58775;BME280;44545;47.480;19.024;2023-01-24T09:43:53;101720.63;;;10.85;63.98
58775;BME280;44545;47.480;19.024;2023-01-24T09:46:57;101710.81;;;10.47;64.52
58775;BME280;44545;47.480;19.024;2023-01-24T09:50:04;101723.22;;;10.61;64.62
58775;BME280;44545;47.480;19.024;2023-01-24T09:53:18;101716.84;;;10.70;62.27
58775;BME280;44545;47.480;19.024;2023-01-24T09:59:46;101705.78;;;11.56;59.49
58775;BME280;44545;47.480;19.024;2023-01-24T10:02:56;101700.97;;;12.24;56.29
58775;BME280;44545;47.480;19.024;2023-01-24T10:06:09;101703.25;;;12.58;54.79
58775;BME280;44545;47.480;19.024;2023-01-24T10:09:25;101690.31;;;13.13;52.25
58775;BME280;44545;47.480;19.024;2023-01-24T10:12:54;101691.84;;;13.09;52.00
58775;BME280;44545;47.480;19.024;2023-01-24T10:16:15;101690.50;;;12.76;53.71
58775;BME280;44545;47.480;19.024;2023-01-24T10:23:00;101684.16;;;11.70;55.11
58775;BME280;44545;47.480;19.024;2023-01-24T10:26:14;101678.91;;;11.34;56.03
58775;BME280;44545;47.480;19.024;2023-01-24T10:29:29;101675.13;;;11.54;56.44
58775;BME280;44545;47.480;19.024;2023-01-24T10:32:33;101673.53;;;11.81;55.11
58775;BME280;44545;47.480;19.024;2023-01-24T10:35:54;101677.94;;;11.57;56.02
58775;BME280;44545;47.480;19.024;2023-01-24T10:38:57;101684.87;;;11.19;56.19
58775;BME280;44545;47.480;19.024;2023-01-24T10:42:00;101686.75;;;11.34;55.74
58775;BME280;44545;47.480;19.024;2023-01-24T10:45:51;101676.66;;;11.75;54.70
58775;BME280;44545;47.480;19.024;2023-01-24T10:48:56;101674.97;;;11.27;55.31
58775;BME280;44545;47.480;19.024;2023-01-24T10:55:31;101668.50;;;11.59;53.44
58775;BME280;44545;47.480;19.024;2023-01-24T11:02:19;101663.34;;;10.87;55.33
58775;BME280;44545;47.480;19.024;2023-01-24T11:05:23;101655.72;;;10.90;55.50
58775;BME280;44545;47.480;19.024;2023-01-24T11:08:36;101659.88;;;11.11;54.44
58775;BME280;44545;47.480;19.024;2023-01-24T11:11:54;101655.13;;;11.05;54.70
58775;BME280;44545;47.480;19.024;2023-01-24T11:14:56;101647.91;;;10.90;55.89
58775;BME280;44545;47.480;19.024;2023-01-24T11:21:12;101633.16;;;11.64;54.37
58775;BME280;44545;47.480;19.024;2023-01-24T11:24:16;101632.59;;;11.68;53.27
58775;BME280;44545;47.480;19.024;2023-01-24T11:27:20;101623.97;;;11.32;56.43
58775;BME280;44545;47.480;19.024;2023-01-24T11:30:23;101625.34;;;10.67;56.03
58775;BME280;44545;47.480;19.024;2023-01-24T11:41:18;101614.09;;;11.28;55.01
58775;BME280;44545;47.480;19.024;2023-01-24T11:44:28;101616.22;;;10.85;54.92
58775;BME280;44545;47.480;19.024;2023-01-24T11:48:25;101609.91;;;10.70;56.27
58775;BME280;44545;47.480;19.024;2023-01-24T11:51:19;101601.06;;;10.44;57.03
58775;BME280;44545;47.480;19.024;2023-01-24T11:54:42;101600.16;;;10.44;57.14
58775;BME280;44545;47.480;19.024;2023-01-24T12:05:04;101605.66;;;10.25;56.11
58775;BME280;44545;47.480;19.024;2023-01-24T12:08:36;101606.50;;;10.47;55.15
58775;BME280;44545;47.480;19.024;2023-01-24T12:15:20;101587.88;;;10.90;55.71
58775;BME280;44545;47.480;19.024;2023-01-24T12:21:28;101580.44;;;13.01;48.11
58775;BME280;44545;47.480;19.024;2023-01-24T12:24:33;101579.69;;;12.62;50.08
58775;BME280;44545;47.480;19.024;2023-01-24T12:27:37;101583.63;;;12.29;50.00
58775;BME280;44545;47.480;19.024;2023-01-24T12:30:43;101592.63;;;12.07;50.06
58775;BME280;44545;47.480;19.024;2023-01-24T12:33:50;101584.28;;;11.49;51.37
58775;BME280;44545;47.480;19.024;2023-01-24T12:37:06;101585.00;;;10.98;53.67
58775;BME280;44545;47.480;19.024;2023-01-24T12:46:41;101593.13;;;9.97;57.49
58775;BME280;44545;47.480;19.024;2023-01-24T12:50:01;101593.50;;;10.02;60.49
58775;BME280;44545;47.480;19.024;2023-01-24T12:56:56;101597.22;;;9.93;59.66
58775;BME280;44545;47.480;19.024;2023-01-24T13:00:01;101596.41;;;9.83;61.41
58775;BME280;44545;47.480;19.024;2023-01-24T13:07:04;101596.37;;;9.49;62.44
58775;BME280;44545;47.480;19.024;2023-01-24T13:13:35;101588.38;;;9.02;65.11
58775;BME280;44545;47.480;19.024;2023-01-24T13:20:19;101584.97;;;8.71;68.70
58775;BME280;44545;47.480;19.024;2023-01-24T13:24:04;101586.97;;;8.63;70.01
58775;BME280;44545;47.480;19.024;2023-01-24T13:30:50;101587.28;;;8.45;73.16
58775;BME280;44545;47.480;19.024;2023-01-24T13:34:01;101598.31;;;8.43;74.88
58775;BME280;44545;47.480;19.024;2023-01-24T13:37:06;101597.41;;;8.42;75.34
58775;BME280;44545;47.480;19.024;2023-01-24T13:47:02;101599.25;;;8.33;78.10
58775;BME280;44545;47.480;19.024;2023-01-24T13:50:15;101597.69;;;8.25;79.16
58775;BME280;44545;47.480;19.024;2023-01-24T13:53:57;101600.28;;;8.15;78.48
58775;BME280;44545;47.480;19.024;2023-01-24T14:03:24;101601.97;;;8.35;79.67
58775;BME280;44545;47.480;19.024;2023-01-24T14:06:43;101600.25;;;8.35;79.97
58775;BME280;44545;47.480;19.024;2023-01-24T14:09:46;101604.03;;;8.49;80.17
58775;BME280;44545;47.480;19.024;2023-01-24T14:12:53;101599.91;;;8.31;81.74
58775;BME280;44545;47.480;19.024;2023-01-24T14:15:56;101611.09;;;8.09;82.39
58775;BME280;44545;47.480;19.024;2023-01-24T14:19:07;101601.34;;;8.07;82.90
58775;BME280;44545;47.480;19.024;2023-01-24T14:22:21;101609.56;;;7.91;85.71
58775;BME280;44545;47.480;19.024;2023-01-24T14:25:34;101609.66;;;7.72;84.97
58775;BME280;44545;47.480;19.024;2023-01-24T14:28:43;101606.94;;;7.50;86.99
58775;BME280;44545;47.480;19.024;2023-01-24T14:31:50;101608.44;;;7.27;89.74
58775;BME280;44545;47.480;19.024;2023-01-24T14:38:14;101610.28;;;6.89;92.72
58775;BME280;44545;47.480;19.024;2023-01-24T14:41:20;101606.25;;;6.63;94.07
58775;BME280;44545;47.480;19.024;2023-01-24T14:44:38;101618.62;;;6.47;95.49
58775;BME280;44545;47.480;19.024;2023-01-24T14:47:46;101619.47;;;6.37;95.84
58775;BME280;44545;47.480;19.024;2023-01-24T14:51:03;101611.78;;;6.28;97.25
58775;BME280;44545;47.480;19.024;2023-01-24T14:54:18;101614.72;;;6.23;97.27
58775;BME280;44545;47.480;19.024;2023-01-24T14:57:24;101612.00;;;6.21;96.34
58775;BME280;44545;47.480;19.024;2023-01-24T15:00:27;101622.75;;;6.07;96.76
58775;BME280;44545;47.480;19.024;2023-01-24T15:03:32;101620.94;;;6.06;97.28
58775;BME280;44545;47.480;19.024;2023-01-24T15:06:35;101621.41;;;6.02;98.21
58775;BME280;44545;47.480;19.024;2023-01-24T15:09:38;101622.00;;;5.80;99.34
58775;BME280;44545;47.480;19.024;2023-01-24T15:12:41;101619.94;;;5.68;99.61
58775;BME280;44545;47.480;19.024;2023-01-24T15:15:43;101629.59;;;5.60;99.67
58775;BME280;44545;47.480;19.024;2023-01-24T15:18:49;101629.94;;;5.46;100.00
58775;BME280;44545;47.480;19.024;2023-01-24T15:21:54;101628.75;;;5.42;100.00
58775;BME280;44545;47.480;19.024;2023-01-24T15:24:59;101629.06;;;5.36;100.00
58775;BME280;44545;47.480;19.024;2023-01-24T15:28:20;101635.19;;;5.28;100.00
58775;BME280;44545;47.480;19.024;2023-01-24T15:31:29;101640.53;;;5.21;100.00
58775;BME280;44545;47.480;19.024;2023-01-24T15:34:31;101641.31;;;5.20;100.00
58775;BME280;44545;47.480;19.024;2023-01-24T15:37:34;101648.34;;;5.04;100.00
58775;BME280;44545;47.480;19.024;2023-01-24T15:43:50;101647.06;;;4.81;100.00
58775;BME280;44545;47.480;19.024;2023-01-24T15:46:57;101638.84;;;4.76;100.00
58775;BME280;44545;47.480;19.024;2023-01-24T15:50:22;101635.03;;;4.73;100.00
58775;BME280;44545;47.480;19.024;2023-01-24T15:53:43;101645.72;;;4.59;100.00
58775;BME280;44545;47.480;19.024;2023-01-24T15:56:46;101649.19;;;4.50;100.00
58775;BME280;44545;47.480;19.024;2023-01-24T16:03:10;101654.66;;;4.27;100.00
58775;BME280;44545;47.480;19.024;2023-01-24T16:06:12;101656.97;;;4.24;100.00
58775;BME280;44545;47.480;19.024;2023-01-24T16:09:15;101663.03;;;4.25;100.00
58775;BME280;44545;47.480;19.024;2023-01-24T16:12:18;101663.16;;;4.18;100.00
58775;BME280;44545;47.480;19.024;2023-01-24T16:15:22;101668.78;;;4.22;100.00
58775;BME280;44545;47.480;19.024;2023-01-24T16:18:24;101672.75;;;4.19;100.00
58775;BME280;44545;47.480;19.024;2023-01-24T16:21:27;101673.19;;;4.15;100.00
58775;BME280;44545;47.480;19.024;2023-01-24T16:24:29;101674.25;;;4.17;100.00
58775;BME280;44545;47.480;19.024;2023-01-24T16:27:31;101673.34;;;4.16;100.00
58775;BME280;44545;47.480;19.024;2023-01-24T16:30:34;101673.66;;;4.10;100.00
58775;BME280;44545;47.480;19.024;2023-01-24T16:33:36;101672.44;;;4.16;100.00
58775;BME280;44545;47.480;19.024;2023-01-24T16:36:39;101668.31;;;4.18;100.00
58775;BME280;44545;47.480;19.024;2023-01-24T16:39:41;101666.97;;;4.21;100.00
58775;BME280;44545;47.480;19.024;2023-01-24T16:42:46;101664.06;;;4.09;100.00
58775;BME280;44545;47.480;19.024;2023-01-24T16:45:50;101664.53;;;4.05;100.00
58775;BME280;44545;47.480;19.024;2023-01-24T16:48:53;101677.25;;;3.86;100.00
58775;BME280;44545;47.480;19.024;2023-01-24T16:51:55;101673.31;;;3.90;100.00
58775;BME280;44545;47.480;19.024;2023-01-24T16:54:57;101675.44;;;3.85;100.00
58775;BME280;44545;47.480;19.024;2023-01-24T16:58:00;101673.31;;;3.90;100.00
58775;BME280;44545;47.480;19.024;2023-01-24T17:01:07;101676.22;;;3.93;100.00
58775;BME280;44545;47.480;19.024;2023-01-24T17:04:10;101675.31;;;3.93;100.00
58775;BME280;44545;47.480;19.024;2023-01-24T17:07:13;101682.38;;;3.78;100.00
58775;BME280;44545;47.480;19.024;2023-01-24T17:10:15;101689.06;;;3.76;100.00
58775;BME280;44545;47.480;19.024;2023-01-24T17:13:18;101683.28;;;3.78;100.00
58775;BME280;44545;47.480;19.024;2023-01-24T17:16:22;101681.16;;;3.74;100.00
58775;BME280;44545;47.480;19.024;2023-01-24T17:19:25;101684.44;;;3.64;100.00
58775;BME280;44545;47.480;19.024;2023-01-24T17:22:28;101687.31;;;3.59;100.00
58775;BME280;44545;47.480;19.024;2023-01-24T17:25:30;101682.44;;;3.53;100.00
58775;BME280;44545;47.480;19.024;2023-01-24T17:28:34;101687.91;;;3.47;100.00
58775;BME280;44545;47.480;19.024;2023-01-24T17:31:37;101695.63;;;3.47;100.00
58775;BME280;44545;47.480;19.024;2023-01-24T17:34:40;101695.25;;;3.36;100.00
58775;BME280;44545;47.480;19.024;2023-01-24T17:37:43;101703.22;;;3.21;100.00
58775;BME280;44545;47.480;19.024;2023-01-24T17:40:50;101696.22;;;3.12;100.00
58775;BME280;44545;47.480;19.024;2023-01-24T17:43:52;101696.12;;;3.28;100.00
58775;BME280;44545;47.480;19.024;2023-01-24T17:46:55;101689.47;;;3.30;100.00
58775;BME280;44545;47.480;19.024;2023-01-24T17:49:59;101693.06;;;3.23;100.00
58775;BME280;44545;47.480;19.024;2023-01-24T17:53:01;101697.00;;;3.19;100.00
58775;BME280;44545;47.480;19.024;2023-01-24T17:56:04;101707.22;;;3.02;100.00
58775;BME280;44545;47.480;19.024;2023-01-24T17:59:06;101701.75;;;2.99;100.00
58775;BME280;44545;47.480;19.024;2023-01-24T18:02:09;101699.03;;;2.81;100.00
58775;BME280;44545;47.480;19.024;2023-01-24T18:05:11;101701.53;;;2.89;100.00
58775;BME280;44545;47.480;19.024;2023-01-24T18:08:14;101702.25;;;2.88;100.00
58775;BME280;44545;47.480;19.024;2023-01-24T18:11:18;101707.19;;;2.77;100.00
58775;BME280;44545;47.480;19.024;2023-01-24T18:14:21;101699.56;;;2.70;100.00
58775;BME280;44545;47.480;19.024;2023-01-24T18:17:23;101700.25;;;2.45;100.00
58775;BME280;44545;47.480;19.024;2023-01-24T18:20:25;101700.94;;;2.51;100.00
58775;BME280;44545;47.480;19.024;2023-01-24T18:23:28;101704.41;;;2.51;100.00
58775;BME280;44545;47.480;19.024;2023-01-24T18:26:31;101700.78;;;2.33;100.00
58775;BME280;44545;47.480;19.024;2023-01-24T18:29:33;101702.75;;;2.20;100.00
58775;BME280;44545;47.480;19.024;2023-01-24T18:32:36;101701.00;;;2.12;100.00
58775;BME280;44545;47.480;19.024;2023-01-24T18:35:41;101696.53;;;2.18;100.00
58775;BME280;44545;47.480;19.024;2023-01-24T18:38:44;101708.56;;;2.26;100.00
58775;BME280;44545;47.480;19.024;2023-01-24T18:41:47;101703.34;;;2.33;100.00
58775;BME280;44545;47.480;19.024;2023-01-24T18:44:49;101710.06;;;2.08;100.00
58775;BME280;44545;47.480;19.024;2023-01-24T18:47:51;101704.75;;;2.23;100.00
58775;BME280;44545;47.480;19.024;2023-01-24T18:50:54;101713.72;;;2.10;100.00
58775;BME280;44545;47.480;19.024;2023-01-24T18:53:56;101714.50;;;1.86;100.00
58775;BME280;44545;47.480;19.024;2023-01-24T18:56:58;101706.41;;;1.90;100.00
58775;BME280;44545;47.480;19.024;2023-01-24T19:00:03;101710.38;;;1.95;100.00
58775;BME280;44545;47.480;19.024;2023-01-24T19:03:06;101710.06;;;1.92;100.00
58775;BME280;44545;47.480;19.024;2023-01-24T19:06:09;101710.69;;;1.83;100.00
58775;BME280;44545;47.480;19.024;2023-01-24T19:09:11;101711.87;;;1.93;100.00
58775;BME280;44545;47.480;19.024;2023-01-24T19:12:14;101703.25;;;1.93;100.00
58775;BME280;44545;47.480;19.024;2023-01-24T19:15:16;101713.88;;;1.96;100.00
58775;BME280;44545;47.480;19.024;2023-01-24T19:18:20;101718.44;;;1.99;100.00
58775;BME280;44545;47.480;19.024;2023-01-24T19:21:22;101717.00;;;1.93;100.00
58775;BME280;44545;47.480;19.024;2023-01-24T19:24:26;101715.09;;;2.00;100.00
58775;BME280;44545;47.480;19.024;2023-01-24T19:27:28;101708.78;;;1.89;100.00
58775;BME280;44545;47.480;19.024;2023-01-24T19:30:31;101713.69;;;1.94;100.00
58775;BME280;44545;47.480;19.024;2023-01-24T19:33:33;101707.81;;;1.95;100.00
58775;BME280;44545;47.480;19.024;2023-01-24T19:36:35;101712.13;;;2.04;100.00
58775;BME280;44545;47.480;19.024;2023-01-24T19:39:40;101717.84;;;2.01;100.00
58775;BME280;44545;47.480;19.024;2023-01-24T19:42:42;101714.50;;;1.86;100.00
58775;BME280;44545;47.480;19.024;2023-01-24T19:45:48;101715.94;;;1.91;100.00
58775;BME280;44545;47.480;19.024;2023-01-24T19:48:55;101717.47;;;1.82;100.00
58775;BME280;44545;47.480;19.024;2023-01-24T19:51:57;101721.31;;;1.86;100.00
58775;BME280;44545;47.480;19.024;2023-01-24T19:55:00;101714.31;;;1.85;100.00
58775;BME280;44545;47.480;19.024;2023-01-24T19:58:03;101720.63;;;1.80;100.00
58775;BME280;44545;47.480;19.024;2023-01-24T20:01:12;101725.03;;;1.81;100.00
58775;BME280;44545;47.480;19.024;2023-01-24T20:04:15;101730.16;;;1.65;100.00
58775;BME280;44545;47.480;19.024;2023-01-24T20:07:26;101732.63;;;1.72;100.00
58775;BME280;44545;47.480;19.024;2023-01-24T20:10:29;101727.84;;;1.75;100.00
58775;BME280;44545;47.480;19.024;2023-01-24T20:13:31;101724.25;;;1.66;100.00
58775;BME280;44545;47.480;19.024;2023-01-24T20:16:34;101734.31;;;1.71;100.00
58775;BME280;44545;47.480;19.024;2023-01-24T20:19:36;101727.50;;;1.72;100.00
58775;BME280;44545;47.480;19.024;2023-01-24T20:22:42;101731.41;;;1.68;100.00
58775;BME280;44545;47.480;19.024;2023-01-24T20:25:44;101729.00;;;1.70;100.00
58775;BME280;44545;47.480;19.024;2023-01-24T20:28:47;101730.25;;;1.73;100.00
58775;BME280;44545;47.480;19.024;2023-01-24T20:31:49;101719.44;;;1.69;100.00
58775;BME280;44545;47.480;19.024;2023-01-24T20:34:51;101730.06;;;1.72;100.00
58775;BME280;44545;47.480;19.024;2023-01-24T20:37:54;101722.34;;;1.72;100.00
58775;BME280;44545;47.480;19.024;2023-01-24T20:40:57;101727.16;;;1.69;100.00
58775;BME280;44545;47.480;19.024;2023-01-24T20:44:00;101737.44;;;1.69;100.00
58775;BME280;44545;47.480;19.024;2023-01-24T20:47:05;101735.78;;;1.69;100.00
58775;BME280;44545;47.480;19.024;2023-01-24T20:50:07;101732.31;;;1.69;100.00
58775;BME280;44545;47.480;19.024;2023-01-24T20:53:10;101740.34;;;1.72;100.00
58775;BME280;44545;47.480;19.024;2023-01-24T20:56:14;101737.44;;;1.69;100.00
58775;BME280;44545;47.480;19.024;2023-01-24T20:59:19;101735.22;;;1.72;100.00
58775;BME280;44545;47.480;19.024;2023-01-24T21:02:21;101744.44;;;1.70;100.00
58775;BME280;44545;47.480;19.024;2023-01-24T21:05:23;101741.09;;;1.71;100.00
58775;BME280;44545;47.480;19.024;2023-01-24T21:08:29;101740.78;;;1.68;100.00
58775;BME280;44545;47.480;19.024;2023-01-24T21:11:32;101745.44;;;1.79;100.00
58775;BME280;44545;47.480;19.024;2023-01-24T21:14:35;101748.25;;;1.73;100.00